Time;durP1;ratioP1;P1;durP2;ratioP2;P2;SDS_P1;SDS_P2;PMS_P1;PMS_P2;Temp;Humidity;BMP_temperature;BMP_pressure;BME280_temperature;BME280_humidity;BME280_pressure;Samples;Min_cycle;Max_cycle;Signal;HPM_P1;HPM_P2
2022/07/07 00:02:42;;;;;;;3.13;0.50;;;;;;;;;;10417111;28;20237;-77
2022/07/07 00:07:43;;;;;;;0.82;0.50;;;;;;;;;;10444465;28;20546;-76
2022/07/07 00:12:45;;;;;;;0.63;0.40;;;;;;;;;;10446415;28;20545;-78
2022/07/07 00:17:46;;;;;;;4.13;0.65;;;;;;;;;;10384620;28;21067;-79
2022/07/07 00:22:47;;;;;;;7.88;0.80;;;;;;;;;;10409236;28;20188;-79
2022/07/07 00:27:48;;;;;;;3.45;0.60;;;;;;;;;;10394943;28;20306;-82
2022/07/07 00:32:49;;;;;;;2.40;0.80;;;;;;;;;;10397831;28;20592;-78
2022/07/07 00:37:50;;;;;;;3.58;0.60;;;;;;;;;;10398943;28;20239;-78
2022/07/07 00:42:51;;;;;;;0.93;0.68;;;;;;;;;;10402822;28;20199;-80
2022/07/07 00:47:52;;;;;;;1.23;0.70;;;;;;;;;;10404606;28;20290;-75
2022/07/07 00:52:53;;;;;;;1.85;0.65;;;;;;;;;;10397151;28;20212;-77
2022/07/07 00:57:54;;;;;;;3.45;0.82;;;;;;;;;;10375296;28;20282;-77
2022/07/07 01:02:55;;;;;;;2.30;0.70;;;;;;;;;;10389978;28;21389;-76
2022/07/07 01:07:58;;;;;;;3.83;1.00;;;;;;;;;;10393828;28;20236;-77
2022/07/07 01:13:02;;;;;;;0.68;0.65;;;;;;;;;;10387829;28;20674;-77
2022/07/07 01:18:03;;;;;;;0.98;0.90;;;;;;;;;;10388509;28;20235;-76
2022/07/07 01:23:04;;;;;;;0.85;0.85;;;;;;;;;;10385819;28;20201;-77
2022/07/07 01:28:05;;;;;;;1.48;1.10;;;;;;;;;;10393712;28;20211;-76
2022/07/07 01:33:06;;;;;;;2.15;0.75;;;;;;;;;;10388241;28;20683;-77
2022/07/07 01:38:07;;;;;;;2.03;0.70;;;;;;;;;;10384390;28;20192;-78
2022/07/07 01:43:09;;;;;;;1.63;1.00;;;;;;;;;;10391078;28;20253;-77
2022/07/07 01:48:10;;;;;;;3.63;0.90;;;;;;;;;;10386193;28;20219;-78
2022/07/07 01:53:11;;;;;;;2.67;0.88;;;;;;;;;;10389374;28;20242;-78
2022/07/07 01:58:13;;;;;;;2.13;1.13;;;;;;;;;;10399025;28;20184;-78
2022/07/07 02:03:14;;;;;;;1.13;1.02;;;;;;;;;;10369709;28;20223;-76
2022/07/07 02:08:16;;;;;;;4.22;1.20;;;;;;;;;;10374507;28;20212;-77
2022/07/07 02:13:17;;;;;;;1.45;0.80;;;;;;;;;;10388987;28;20771;-76
2022/07/07 02:18:18;;;;;;;0.63;0.63;;;;;;;;;;10389597;28;20717;-76
2022/07/07 02:23:19;;;;;;;0.80;0.80;;;;;;;;;;10384506;28;20198;-76
2022/07/07 02:28:22;;;;;;;3.65;1.25;;;;;;;;;;10347170;28;20219;-76
2022/07/07 02:33:24;;;;;;;1.92;0.93;;;;;;;;;;10384056;28;20777;-74
2022/07/07 02:38:25;;;;;;;0.93;0.90;;;;;;;;;;10380038;28;20214;-75
2022/07/07 02:43:26;;;;;;;5.50;1.90;;;;;;;;;;10375487;28;20219;-73
2022/07/07 02:48:28;;;;;;;2.58;2.13;;;;;;;;;;10374535;28;20278;-74
2022/07/07 02:53:29;;;;;;;3.72;1.80;;;;;;;;;;10362357;28;20750;-73
2022/07/07 02:58:30;;;;;;;2.55;1.77;;;;;;;;;;10380155;28;20250;-73
2022/07/07 03:03:31;;;;;;;2.10;1.90;;;;;;;;;;10377669;28;20237;-74
2022/07/07 03:08:32;;;;;;;4.72;2.78;;;;;;;;;;10374619;28;20224;-72
2022/07/07 03:13:33;;;;;;;2.33;1.90;;;;;;;;;;10379632;28;20319;-73
2022/07/07 03:18:35;;;;;;;2.05;1.67;;;;;;;;;;10380528;28;20212;-74
2022/07/07 03:23:36;;;;;;;2.78;2.55;;;;;;;;;;10381920;28;20307;-73
2022/07/07 03:28:37;;;;;;;4.20;2.10;;;;;;;;;;10361737;28;21128;-73
2022/07/07 03:33:38;;;;;;;2.75;2.58;;;;;;;;;;10372001;28;20836;-73
2022/07/07 03:38:39;;;;;;;3.17;3.05;;;;;;;;;;10376320;28;20204;-74
2022/07/07 03:43:40;;;;;;;3.35;3.00;;;;;;;;;;10372757;28;20215;-73
2022/07/07 03:48:41;;;;;;;3.40;2.83;;;;;;;;;;10364158;28;20231;-73
2022/07/07 03:53:42;;;;;;;3.65;3.30;;;;;;;;;;10381912;28;20287;-74
2022/07/07 03:58:43;;;;;;;3.65;3.38;;;;;;;;;;10385345;28;20192;-73
2022/07/07 04:03:44;;;;;;;3.40;3.20;;;;;;;;;;10365954;28;20219;-75
2022/07/07 04:08:45;;;;;;;5.38;4.47;;;;;;;;;;10377550;28;20263;-75
2022/07/07 04:13:46;;;;;;;3.83;3.45;;;;;;;;;;10384445;28;20191;-76
2022/07/07 04:18:47;;;;;;;5.85;4.03;;;;;;;;;;10390937;28;20683;-76
2022/07/07 04:23:49;;;;;;;6.05;4.40;;;;;;;;;;10391635;28;20191;-76
2022/07/07 04:28:50;;;;;;;4.15;2.95;;;;;;;;;;10367806;28;20303;-75
2022/07/07 04:33:51;;;;;;;3.78;3.58;;;;;;;;;;10363273;28;20212;-75
2022/07/07 04:38:52;;;;;;;7.95;4.30;;;;;;;;;;10378869;28;20207;-74
2022/07/07 04:43:53;;;;;;;4.03;3.70;;;;;;;;;;10384323;28;20215;-76
2022/07/07 04:48:54;;;;;;;5.53;5.28;;;;;;;;;;10389473;28;20293;-76
2022/07/07 04:53:55;;;;;;;7.10;6.57;;;;;;;;;;10387903;28;20187;-75
2022/07/07 04:58:56;;;;;;;5.55;5.18;;;;;;;;;;10388881;28;20281;-76
2022/07/07 05:03:57;;;;;;;5.53;5.32;;;;;;;;;;10389119;28;20223;-76
2022/07/07 05:08:58;;;;;;;8.00;7.30;;;;;;;;;;10384017;28;20259;-76
2022/07/07 05:13:59;;;;;;;7.05;6.63;;;;;;;;;;10384703;28;20200;-76
2022/07/07 05:19:00;;;;;;;9.13;8.20;;;;;;;;;;10387643;28;20722;-76
2022/07/07 05:24:01;;;;;;;9.88;8.95;;;;;;;;;;10384349;28;20278;-76
2022/07/07 05:29:02;;;;;;;7.80;6.97;;;;;;;;;;10370684;28;20219;-76
2022/07/07 05:34:03;;;;;;;8.52;8.02;;;;;;;;;;10387878;28;20320;-77
2022/07/07 05:39:06;;;;;;;9.80;9.20;;;;;;;;;;10374648;28;20195;-76
2022/07/07 05:44:07;;;;;;;8.65;7.80;;;;;;;;;;10364831;28;20219;-79
2022/07/07 05:49:08;;;;;;;10.18;9.57;;;;;;;;;;10385292;28;20718;-78
2022/07/07 05:54:09;;;;;;;9.80;9.15;;;;;;;;;;10386978;28;20192;-77
2022/07/07 05:59:10;;;;;;;8.15;7.55;;;;;;;;;;10362029;28;20192;-76
2022/07/07 06:04:11;;;;;;;8.40;7.78;;;;;;;;;;10386487;28;20711;-76
2022/07/07 06:09:12;;;;;;;9.00;8.60;;;;;;;;;;10386267;28;20334;-75
2022/07/07 06:14:13;;;;;;;8.52;7.88;;;;;;;;;;10387733;28;20181;-76
2022/07/07 06:19:14;;;;;;;7.75;7.35;;;;;;;;;;10390562;28;20217;-75
2022/07/07 06:24:15;;;;;;;6.90;6.40;;;;;;;;;;10387191;28;20221;-74
2022/07/07 06:29:17;;;;;;;7.45;7.00;;;;;;;;;;10387772;28;20718;-76
2022/07/07 06:34:18;;;;;;;6.70;6.38;;;;;;;;;;10384117;28;20215;-75
2022/07/07 06:39:19;;;;;;;8.02;7.63;;;;;;;;;;10385934;28;20197;-73
2022/07/07 06:44:20;;;;;;;6.40;6.10;;;;;;;;;;10366828;28;20196;-75
2022/07/07 06:49:21;;;;;;;5.10;4.85;;;;;;;;;;10386808;28;21102;-73
2022/07/07 06:54:23;;;;;;;7.13;6.75;;;;;;;;;;10386092;28;20230;-74
2022/07/07 06:59:24;;;;;;;8.05;7.45;;;;;;;;;;10387940;28;20200;-75
2022/07/07 07:04:25;;;;;;;6.60;6.18;;;;;;;;;;10356162;28;20238;-75
2022/07/07 07:09:26;;;;;;;7.75;6.32;;;;;;;;;;10383861;28;20230;-77
2022/07/07 07:14:27;;;;;;;6.15;5.85;;;;;;;;;;10386398;28;20188;-77
2022/07/07 07:19:28;;;;;;;7.18;6.88;;;;;;;;;;10387712;28;21222;-75
2022/07/07 07:24:29;;;;;;;6.93;6.68;;;;;;;;;;10395116;28;20199;-74
2022/07/07 07:29:30;;;;;;;8.32;7.82;;;;;;;;;;10391260;28;20259;-75
2022/07/07 07:34:31;;;;;;;7.20;6.97;;;;;;;;;;10377404;28;20208;-74
2022/07/07 07:39:34;;;;;;;6.88;6.53;;;;;;;;;;10389764;28;20745;-73
2022/07/07 07:49:54;;;;;;;6.15;5.95;;;;;;;;;;10392398;28;20208;-75
2022/07/07 07:54:56;;;;;;;5.50;5.40;;;;;;;;;;10389693;28;20801;-73
2022/07/07 07:59:57;;;;;;;4.72;4.63;;;;;;;;;;10390625;28;20230;-73
2022/07/07 08:04:58;;;;;;;5.63;5.32;;;;;;;;;;10370391;28;20283;-73
2022/07/07 08:09:59;;;;;;;4.10;3.90;;;;;;;;;;10390596;28;20277;-73
2022/07/07 08:15:01;;;;;;;3.72;3.53;;;;;;;;;;10387700;28;20219;-74
2022/07/07 08:20:03;;;;;;;4.05;3.58;;;;;;;;;;10391096;28;20215;-73
2022/07/07 08:25:04;;;;;;;2.88;2.75;;;;;;;;;;10390834;28;20219;-75
2022/07/07 08:30:06;;;;;;;3.08;3.00;;;;;;;;;;10390545;28;20183;-77
2022/07/07 08:35:07;;;;;;;3.08;2.88;;;;;;;;;;10391823;28;20641;-75
2022/07/07 08:40:09;;;;;;;2.38;2.28;;;;;;;;;;10390209;28;20586;-76
2022/07/07 08:45:10;;;;;;;3.13;3.03;;;;;;;;;;10389117;28;20591;-75
2022/07/07 08:50:11;;;;;;;3.05;2.95;;;;;;;;;;10385410;28;20195;-76
2022/07/07 08:55:15;;;;;;;2.60;2.50;;;;;;;;;;10389313;28;20199;-74
2022/07/07 09:00:17;;;;;;;2.70;2.60;;;;;;;;;;10371944;28;20195;-75
2022/07/07 09:05:18;;;;;;;2.92;2.92;;;;;;;;;;10371839;28;20207;-76
2022/07/07 09:10:29;;;;;;;3.15;2.90;;;;;;;;;;10390613;28;20219;-75
2022/07/07 09:15:39;;;;;;;3.42;3.33;;;;;;;;;;10386672;28;20626;-75
2022/07/07 09:20:41;;;;;;;2.80;2.70;;;;;;;;;;10382532;28;20225;-75
2022/07/07 09:25:42;;;;;;;2.95;2.95;;;;;;;;;;10387078;28;20249;-74
2022/07/07 09:30:47;;;;;;;3.30;3.00;;;;;;;;;;10387074;28;20282;-74
2022/07/07 09:41:13;;;;;;;2.70;2.70;;;;;;;;;;10388447;28;20282;-75
2022/07/07 09:46:15;;;;;;;2.50;2.50;;;;;;;;;;10368381;28;20703;-75
2022/07/07 09:51:20;;;;;;;2.75;2.75;;;;;;;;;;10390375;28;20693;-75
2022/07/07 09:56:22;;;;;;;2.00;2.00;;;;;;;;;;10386228;28;20183;-76
2022/07/07 10:01:25;;;;;;;1.70;1.70;;;;;;;;;;10376540;28;20230;-76
2022/07/07 10:06:28;;;;;;;2.50;2.50;;;;;;;;;;10389398;28;20220;-74
2022/07/07 10:11:39;;;;;;;2.58;2.45;;;;;;;;;;10387479;28;20313;-77
2022/07/07 10:16:40;;;;;;;1.42;1.42;;;;;;;;;;10386540;28;20727;-77
2022/07/07 10:21:42;;;;;;;1.92;1.92;;;;;;;;;;10384129;28;20207;-76
2022/07/07 10:26:48;;;;;;;1.85;1.75;;;;;;;;;;10387076;28;20219;-77
2022/07/07 10:31:50;;;;;;;1.42;1.42;;;;;;;;;;10371261;28;20234;-77
2022/07/07 10:36:51;;;;;;;1.10;1.10;;;;;;;;;;10382017;28;20217;-75
2022/07/07 10:42:07;;;;;;;0.90;0.90;;;;;;;;;;10381658;28;20188;-75
2022/07/07 10:47:13;;;;;;;1.30;1.30;;;;;;;;;;10382258;28;20298;-76
2022/07/07 10:52:16;;;;;;;0.90;0.90;;;;;;;;;;10383613;28;20188;-76
2022/07/07 10:57:18;;;;;;;0.70;0.70;;;;;;;;;;10385295;28;20316;-77
2022/07/07 11:02:39;;;;;;;1.33;1.33;;;;;;;;;;10386257;28;20574;-73
2022/07/07 11:07:43;;;;;;;0.80;0.80;;;;;;;;;;10377192;28;20220;-75
2022/07/07 11:12:45;;;;;;;0.93;0.93;;;;;;;;;;10387065;28;20200;-76
2022/07/07 11:18:07;;;;;;;0.70;0.70;;;;;;;;;;10389743;28;20294;-76
2022/07/07 11:23:10;;;;;;;0.80;0.80;;;;;;;;;;10384689;28;20283;-74
2022/07/07 11:28:11;;;;;;;0.88;0.88;;;;;;;;;;10387140;28;20215;-74
2022/07/07 11:33:12;;;;;;;1.30;0.93;;;;;;;;;;10391822;28;20768;-74
2022/07/07 11:38:13;;;;;;;1.08;0.70;;;;;;;;;;10392013;28;20195;-75
2022/07/07 11:43:21;;;;;;;1.00;0.90;;;;;;;;;;10389170;28;20737;-76
2022/07/07 11:48:22;;;;;;;0.82;0.82;;;;;;;;;;10386707;28;20696;-75
2022/07/07 11:53:24;;;;;;;0.77;0.77;;;;;;;;;;10388821;28;20188;-75
2022/07/07 11:58:25;;;;;;;1.33;0.50;;;;;;;;;;10386370;28;20193;-76
2022/07/07 12:03:31;;;;;;;1.55;0.60;;;;;;;;;;10381964;28;20750;-76
2022/07/07 12:08:33;;;;;;;0.80;0.80;;;;;;;;;;10382901;28;20238;-76
2022/07/07 12:13:34;;;;;;;1.17;0.70;;;;;;;;;;10387396;28;20637;-76
2022/07/07 12:18:39;;;;;;;1.65;0.60;;;;;;;;;;10366804;28;20211;-72
2022/07/07 12:23:41;;;;;;;1.05;0.50;;;;;;;;;;10382472;28;20204;-73
2022/07/07 12:28:43;;;;;;;1.75;0.80;;;;;;;;;;10381159;28;20211;-74
2022/07/07 12:33:44;;;;;;;1.00;0.80;;;;;;;;;;10353454;28;20207;-72
2022/07/07 12:38:49;;;;;;;1.00;0.68;;;;;;;;;;10366356;28;20219;-75
2022/07/07 12:43:50;;;;;;;0.65;0.65;;;;;;;;;;10380598;28;20804;-74
2022/07/07 12:48:52;;;;;;;0.50;0.50;;;;;;;;;;10383673;28;20597;-73
2022/07/07 12:53:54;;;;;;;0.85;0.50;;;;;;;;;;10380002;28;20203;-75
2022/07/07 12:58:55;;;;;;;0.50;0.50;;;;;;;;;;10377708;28;20192;-73
2022/07/07 13:03:57;;;;;;;0.52;0.52;;;;;;;;;;10378940;28;20374;-75
2022/07/07 13:08:58;;;;;;;1.00;0.60;;;;;;;;;;10363966;28;20238;-77
2022/07/07 13:13:59;;;;;;;0.50;0.50;;;;;;;;;;10372040;28;20196;-75
2022/07/07 13:19:00;;;;;;;1.17;0.63;;;;;;;;;;10381548;28;20266;-76
2022/07/07 13:24:01;;;;;;;0.63;0.60;;;;;;;;;;10384138;28;20196;-74
2022/07/07 13:29:02;;;;;;;1.60;1.00;;;;;;;;;;10386990;28;20274;-75
2022/07/07 13:34:03;;;;;;;0.60;0.60;;;;;;;;;;10372266;28;20225;-77
2022/07/07 13:39:05;;;;;;;0.60;0.60;;;;;;;;;;10385351;28;20207;-77
2022/07/07 13:44:06;;;;;;;7.72;2.00;;;;;;;;;;10379527;28;20188;-69
2022/07/07 13:49:07;;;;;;;2.78;1.08;;;;;;;;;;10380781;28;20224;-73
2022/07/07 13:54:08;;;;;;;1.95;1.10;;;;;;;;;;10374695;28;20782;-73
2022/07/07 13:59:09;;;;;;;1.90;1.10;;;;;;;;;;10377966;28;20199;-73
2022/07/07 14:04:10;;;;;;;2.65;1.00;;;;;;;;;;10367889;28;20617;-73
2022/07/07 14:09:11;;;;;;;1.13;1.00;;;;;;;;;;10379825;28;20757;-73
2022/07/07 14:14:12;;;;;;;0.82;0.82;;;;;;;;;;10359951;28;20179;-73
2022/07/07 14:19:13;;;;;;;1.42;1.30;;;;;;;;;;10421641;28;20206;-74
2022/07/07 14:24:14;;;;;;;1.08;1.08;;;;;;;;;;10414930;28;20235;-74
2022/07/07 14:29:15;;;;;;;1.58;0.50;;;;;;;;;;10424231;28;21008;-76
2022/07/07 14:34:16;;;;;;;1.05;0.70;;;;;;;;;;10421955;28;20218;-75
2022/07/07 14:39:17;;;;;;;1.35;0.70;;;;;;;;;;10399574;28;20646;-75
2022/07/07 14:44:21;;;;;;;1.35;0.75;;;;;;;;;;10424352;28;20193;-74
2022/07/07 14:49:23;;;;;;;0.65;0.50;;;;;;;;;;10420760;28;20226;-75
2022/07/07 14:54:24;;;;;;;0.47;0.47;;;;;;;;;;10416423;28;20639;-76
2022/07/07 14:59:25;;;;;;;3.20;0.55;;;;;;;;;;10422280;28;20600;-77
2022/07/07 15:04:26;;;;;;;2.83;0.75;;;;;;;;;;10420551;28;20229;-76
2022/07/07 15:09:27;;;;;;;0.73;0.50;;;;;;;;;;10401331;28;20227;-77
2022/07/07 15:14:28;;;;;;;4.53;0.90;;;;;;;;;;10384985;28;20195;-78
2022/07/07 15:19:29;;;;;;;0.52;0.52;;;;;;;;;;10373649;28;20212;-77
2022/07/07 15:24:30;;;;;;;2.55;0.60;;;;;;;;;;10381495;28;20188;-75
2022/07/07 15:29:32;;;;;;;1.30;0.70;;;;;;;;;;10374767;28;20254;-78
2022/07/07 15:34:33;;;;;;;0.82;0.55;;;;;;;;;;10376769;28;20212;-76
2022/07/07 15:39:34;;;;;;;1.30;0.60;;;;;;;;;;10376881;28;20184;-75
2022/07/07 15:44:35;;;;;;;0.90;0.50;;;;;;;;;;10368160;28;20235;-76
2022/07/07 15:49:36;;;;;;;1.35;0.50;;;;;;;;;;10378613;28;20250;-75
2022/07/07 15:54:37;;;;;;;1.70;0.45;;;;;;;;;;10388206;28;20187;-73
2022/07/07 15:59:39;;;;;;;1.92;0.70;;;;;;;;;;10383680;28;20283;-76
2022/07/07 16:04:40;;;;;;;3.00;0.70;;;;;;;;;;10352661;28;20593;-77
2022/07/07 16:09:41;;;;;;;3.40;0.60;;;;;;;;;;10369564;28;20224;-77
2022/07/07 16:14:42;;;;;;;2.15;0.40;;;;;;;;;;10386816;28;20455;-74
2022/07/07 16:19:44;;;;;;;2.15;0.63;;;;;;;;;;10395144;28;20204;-74
2022/07/07 16:24:46;;;;;;;3.35;0.70;;;;;;;;;;10391970;28;20195;-76
2022/07/07 16:29:47;;;;;;;0.75;0.50;;;;;;;;;;10389507;28;20215;-74
2022/07/07 16:34:48;;;;;;;0.80;0.80;;;;;;;;;;10391483;28;20216;-73
2022/07/07 16:39:49;;;;;;;1.23;1.17;;;;;;;;;;10380429;28;20206;-71
2022/07/07 16:44:50;;;;;;;3.67;1.73;;;;;;;;;;10387774;28;20195;-72
2022/07/07 16:49:51;;;;;;;1.98;1.42;;;;;;;;;;10389605;28;20223;-74
2022/07/07 16:54:53;;;;;;;3.70;1.70;;;;;;;;;;10390244;28;20242;-69
2022/07/07 16:59:54;;;;;;;3.42;1.90;;;;;;;;;;10386827;28;20204;-74
2022/07/07 17:04:55;;;;;;;3.85;1.77;;;;;;;;;;10386866;28;20691;-77
2022/07/07 17:09:56;;;;;;;7.38;2.00;;;;;;;;;;10386050;28;20220;-74
2022/07/07 17:14:57;;;;;;;7.03;2.03;;;;;;;;;;10389870;28;20667;-74
2022/07/07 17:19:58;;;;;;;6.75;1.70;;;;;;;;;;10388933;28;20220;-75
2022/07/07 17:24:59;;;;;;;11.63;1.77;;;;;;;;;;10387185;28;20196;-71
2022/07/07 17:30:01;;;;;;;7.30;1.67;;;;;;;;;;10389009;28;20275;-76
2022/07/07 17:35:02;;;;;;;14.77;2.03;;;;;;;;;;10409596;28;20223;-70
2022/07/07 17:40:03;;;;;;;6.10;1.42;;;;;;;;;;10426580;28;20741;-77
2022/07/07 17:45:04;;;;;;;8.10;1.80;;;;;;;;;;10424821;28;20283;-78
2022/07/07 17:50:06;;;;;;;8.38;1.40;;;;;;;;;;10425810;28;20976;-77
2022/07/07 17:55:08;;;;;;;9.10;1.48;;;;;;;;;;10418809;28;20294;-74
2022/07/07 18:00:09;;;;;;;10.07;1.63;;;;;;;;;;10424473;28;20183;-70
2022/07/07 18:05:13;;;;;;;9.13;1.75;;;;;;;;;;10405921;28;20265;-72
2022/07/07 18:10:14;;;;;;;11.18;1.98;;;;;;;;;;10425865;28;20223;-75
2022/07/07 18:15:15;;;;;;;7.60;1.40;;;;;;;;;;10427800;28;20256;-75
2022/07/07 18:20:16;;;;;;;6.65;1.40;;;;;;;;;;10431009;28;20222;-77
2022/07/07 18:25:20;;;;;;;10.07;1.92;;;;;;;;;;10430500;28;20197;-78
2022/07/07 18:30:21;;;;;;;9.30;1.63;;;;;;;;;;10406544;28;20213;-78
2022/07/07 18:35:22;;;;;;;10.10;1.83;;;;;;;;;;10431860;28;20199;-78
2022/07/07 18:40:23;;;;;;;8.55;1.88;;;;;;;;;;10430061;28;20265;-76
2022/07/07 18:45:24;;;;;;;9.90;1.20;;;;;;;;;;10427480;28;20614;-78
2022/07/07 18:50:25;;;;;;;8.20;0.90;;;;;;;;;;10434775;28;20297;-70
2022/07/07 18:55:26;;;;;;;6.95;1.45;;;;;;;;;;10427607;28;20192;-77
2022/07/07 19:00:27;;;;;;;8.95;1.33;;;;;;;;;;10423661;28;20200;-76
2022/07/07 19:05:28;;;;;;;6.70;1.30;;;;;;;;;;10428827;28;20223;-71
2022/07/07 19:10:29;;;;;;;3.88;1.10;;;;;;;;;;10424717;28;20276;-73
2022/07/07 19:15:31;;;;;;;8.13;1.25;;;;;;;;;;10423928;28;20191;-73
2022/07/07 19:20:32;;;;;;;8.88;1.10;;;;;;;;;;10435357;28;20276;-73
2022/07/07 19:25:33;;;;;;;8.85;1.35;;;;;;;;;;10398868;28;20974;-77
2022/07/07 19:30:34;;;;;;;7.53;1.45;;;;;;;;;;10420632;28;20301;-78
2022/07/07 19:35:36;;;;;;;8.10;1.58;;;;;;;;;;10442218;28;20659;-78
2022/07/07 19:40:37;;;;;;;8.35;1.17;;;;;;;;;;10443286;28;20195;-78
2022/07/07 19:45:39;;;;;;;9.50;1.50;;;;;;;;;;10437781;28;20225;-77
2022/07/07 19:50:40;;;;;;;6.15;1.10;;;;;;;;;;10440984;28;20211;-79
2022/07/07 19:55:41;;;;;;;8.55;1.58;;;;;;;;;;10425135;28;20190;-80
2022/07/07 20:00:42;;;;;;;7.15;1.65;;;;;;;;;;10432131;28;20227;-80
2022/07/07 20:05:45;;;;;;;7.78;1.08;;;;;;;;;;10449840;28;20740;-80
2022/07/07 20:10:46;;;;;;;5.47;1.25;;;;;;;;;;10451125;28;20230;-81
2022/07/07 20:15:47;;;;;;;9.25;1.77;;;;;;;;;;10444849;28;20187;-79
2022/07/07 20:20:50;;;;;;;4.10;1.00;;;;;;;;;;10442268;28;20199;-78
2022/07/07 20:25:51;;;;;;;2.80;0.90;;;;;;;;;;10440963;28;20245;-80
2022/07/07 20:30:52;;;;;;;10.18;1.67;;;;;;;;;;10440317;28;20214;-79
2022/07/07 20:35:53;;;;;;;8.70;1.20;;;;;;;;;;10438850;28;20199;-80
2022/07/07 20:40:58;;;;;;;4.68;1.38;;;;;;;;;;10437264;28;20202;-79
2022/07/07 20:46:00;;;;;;;4.78;1.08;;;;;;;;;;10423795;28;20215;-78
2022/07/07 20:51:01;;;;;;;8.15;1.73;;;;;;;;;;10440357;28;20234;-79
2022/07/07 20:56:03;;;;;;;3.40;1.45;;;;;;;;;;10424442;28;20194;-78
2022/07/07 21:01:04;;;;;;;5.45;1.17;;;;;;;;;;10441873;28;20215;-77
2022/07/07 21:06:05;;;;;;;12.60;1.90;;;;;;;;;;10436550;28;20218;-78
2022/07/07 21:11:06;;;;;;;12.60;2.00;;;;;;;;;;10441758;28;20206;-75
2022/07/07 21:16:07;;;;;;;7.90;1.42;;;;;;;;;;10423083;28;20182;-80
2022/07/07 21:21:08;;;;;;;7.35;1.42;;;;;;;;;;10439060;28;20305;-77
2022/07/07 21:26:10;;;;;;;7.63;1.40;;;;;;;;;;10437172;28;20214;-78
2022/07/07 21:31:11;;;;;;;7.32;1.90;;;;;;;;;;10436258;28;20218;-79
2022/07/07 21:36:12;;;;;;;11.55;1.65;;;;;;;;;;10436377;28;20691;-78
2022/07/07 21:41:13;;;;;;;14.25;2.58;;;;;;;;;;10436454;28;20191;-78
2022/07/07 21:46:14;;;;;;;9.43;2.03;;;;;;;;;;10436249;28;20223;-77
2022/07/07 21:51:16;;;;;;;15.68;2.85;;;;;;;;;;10430981;28;20205;-78
2022/07/07 21:56:17;;;;;;;11.25;1.98;;;;;;;;;;10430323;28;20197;-77
2022/07/07 22:01:18;;;;;;;9.20;1.88;;;;;;;;;;10431912;28;20214;-78
2022/07/07 22:11:39;;;;;;;8.32;2.05;;;;;;;;;;10433404;28;20230;-77
2022/07/07 22:16:40;;;;;;;12.60;2.00;;;;;;;;;;10434031;28;20217;-76
2022/07/07 22:21:41;;;;;;;9.35;2.17;;;;;;;;;;10418816;28;20243;-79
2022/07/07 22:26:42;;;;;;;15.30;2.10;;;;;;;;;;10431935;28;20333;-77
2022/07/07 22:31:43;;;;;;;10.68;2.38;;;;;;;;;;10426551;28;20267;-78
2022/07/07 22:36:44;;;;;;;14.27;2.58;;;;;;;;;;10431232;28;20253;-78
2022/07/07 22:41:46;;;;;;;13.60;2.40;;;;;;;;;;10432236;28;20725;-78
2022/07/07 22:46:47;;;;;;;15.32;2.30;;;;;;;;;;10418648;28;20214;-78
2022/07/07 22:51:48;;;;;;;12.15;2.40;;;;;;;;;;10440682;28;20194;-79
2022/07/07 22:56:49;;;;;;;12.25;2.80;;;;;;;;;;10433059;28;20198;-77
2022/07/07 23:01:52;;;;;;;9.45;2.10;;;;;;;;;;10421215;28;20222;-76
2022/07/07 23:06:54;;;;;;;13.20;2.10;;;;;;;;;;10443813;28;20241;-77
2022/07/07 23:11:56;;;;;;;11.93;2.13;;;;;;;;;;10446393;28;20613;-76
2022/07/07 23:16:57;;;;;;;11.38;2.28;;;;;;;;;;10447334;28;20300;-78
2022/07/07 23:21:58;;;;;;;15.90;2.72;;;;;;;;;;10443732;28;20690;-77
2022/07/07 23:26:59;;;;;;;16.08;2.42;;;;;;;;;;10442242;28;20214;-78
2022/07/07 23:32:00;;;;;;;15.18;3.17;;;;;;;;;;10442322;28;20229;-78
2022/07/07 23:37:02;;;;;;;12.57;2.05;;;;;;;;;;10442485;28;20206;-77
2022/07/07 23:42:03;;;;;;;14.30;2.45;;;;;;;;;;10449050;28;20191;-78
2022/07/07 23:47:04;;;;;;;12.10;2.45;;;;;;;;;;10449427;28;20380;-78
2022/07/07 23:52:05;;;;;;;9.45;2.30;;;;;;;;;;10443826;28;20191;-78
2022/07/07 23:57:06;;;;;;;17.77;2.45;;;;;;;;;;10424239;28;20194;-77
